Time;durP1;ratioP1;P1;durP2;ratioP2;P2;SDS_P1;SDS_P2;PMS_P1;PMS_P2;Temp;Humidity;BMP_temperature;BMP_pressure;BME280_temperature;BME280_humidity;BME280_pressure;Samples;Min_cycle;Max_cycle;Signal;HPM_P1;HPM_P2
2022/04/16 00:02:04;;;;;;;3.30;2.40;;;8.80;90.50;;;;;;5039792;28;20112;-78
2022/04/16 00:04:30;;;;;;;3.72;2.90;;;8.80;90.60;;;;;;5034611;28;20051;-78
2022/04/16 00:06:57;;;;;;;3.72;2.55;;;8.70;90.70;;;;;;5049431;28;20026;-78
2022/04/16 00:09:23;;;;;;;5.53;2.90;;;8.70;90.70;;;;;;5034885;28;20091;-78
2022/04/16 00:11:49;;;;;;;2.80;2.42;;;8.70;90.60;;;;;;5034570;28;20052;-79
2022/04/16 00:14:19;;;;;;;4.03;2.30;;;8.60;90.50;;;;;;5034312;28;20029;-78
2022/04/16 00:16:45;;;;;;;3.58;2.50;;;8.60;90.70;;;;;;5032501;28;20022;-77
2022/04/16 00:19:11;;;;;;;4.07;3.10;;;8.60;90.80;;;;;;5034438;28;20033;-79
2022/04/16 00:21:40;;;;;;;3.97;2.42;;;8.50;90.70;;;;;;5033404;28;20053;-78
2022/04/16 00:24:07;;;;;;;3.47;2.50;;;8.50;90.80;;;;;;5017449;28;20091;-78
2022/04/16 00:26:33;;;;;;;3.20;2.67;;;8.50;90.80;;;;;;5035917;28;20109;-78
2022/04/16 00:28:59;;;;;;;2.70;2.42;;;8.50;90.80;;;;;;5047167;28;20029;-79
2022/04/16 00:31:28;;;;;;;3.08;2.47;;;8.50;90.80;;;;;;5025970;28;20035;-79
2022/04/16 00:33:54;;;;;;;3.63;2.65;;;8.40;90.80;;;;;;5033501;28;20092;-79
2022/04/16 00:36:20;;;;;;;4.00;3.33;;;8.40;91.00;;;;;;5033916;28;20287;-79
2022/04/16 00:38:46;;;;;;;3.25;2.90;;;8.40;91.00;;;;;;5032736;28;20469;-79
2022/04/16 00:41:12;;;;;;;2.65;2.40;;;8.30;91.00;;;;;;5035056;28;20034;-79
2022/04/16 00:43:38;;;;;;;3.10;2.70;;;8.30;91.20;;;;;;5033423;28;20432;-78
2022/04/16 00:46:03;;;;;;;3.08;2.78;;;8.30;91.30;;;;;;5034499;28;20034;-79
2022/04/16 00:48:29;;;;;;;2.95;2.65;;;8.20;91.30;;;;;;5033771;28;20446;-78
2022/04/16 00:50:56;;;;;;;6.20;2.50;;;8.20;91.40;;;;;;5033221;28;20052;-79
2022/04/16 00:53:27;;;;;;;3.40;2.90;;;8.30;91.50;;;;;;5033125;28;20033;-79
2022/04/16 00:55:53;;;;;;;5.35;2.90;;;8.30;91.50;;;;;;5015801;28;20052;-78
2022/04/16 00:58:19;;;;;;;3.10;2.50;;;8.30;91.50;;;;;;5039368;28;20426;-79
2022/04/16 01:00:45;;;;;;;3.80;2.40;;;8.20;91.50;;;;;;5048425;28;20391;-79
2022/04/16 01:03:10;;;;;;;2.55;2.22;;;8.20;91.60;;;;;;5033272;28;20092;-79
2022/04/16 01:05:37;;;;;;;3.45;3.10;;;8.20;91.60;;;;;;5034431;28;20029;-78
2022/04/16 01:08:04;;;;;;;3.67;3.03;;;8.20;91.70;;;;;;5032782;28;20026;-79
2022/04/16 01:10:31;;;;;;;3.58;2.90;;;8.20;91.80;;;;;;5033297;28;20075;-79
2022/04/16 01:12:59;;;;;;;3.53;2.88;;;8.20;91.90;;;;;;5032935;28;20026;-79
2022/04/16 01:15:27;;;;;;;3.97;2.75;;;8.20;91.90;;;;;;5033517;28;20091;-79
2022/04/16 01:17:54;;;;;;;3.20;2.70;;;8.10;91.90;;;;;;5032632;28;20030;-79
2022/04/16 01:20:20;;;;;;;3.40;2.58;;;8.20;91.90;;;;;;5033216;28;20048;-79
2022/04/16 01:22:47;;;;;;;2.63;2.42;;;8.10;91.90;;;;;;5035253;28;20077;-77
2022/04/16 01:25:13;;;;;;;3.40;3.10;;;8.10;92.00;;;;;;5033770;28;20585;-77
2022/04/16 01:27:43;;;;;;;2.85;2.65;;;8.10;92.10;;;;;;5038679;28;20117;-79
2022/04/16 01:30:13;;;;;;;4.07;2.92;;;8.10;92.10;;;;;;5074268;28;20027;-78
2022/04/16 01:32:40;;;;;;;2.90;2.60;;;8.10;92.10;;;;;;5059170;28;20088;-79
2022/04/16 01:35:07;;;;;;;3.97;3.10;;;8.10;92.10;;;;;;5057921;28;20025;-78
2022/04/16 01:37:34;;;;;;;3.30;2.88;;;8.10;92.30;;;;;;5054985;28;20020;-79
2022/04/16 01:40:05;;;;;;;4.63;3.47;;;8.10;92.40;;;;;;5058932;28;20017;-78
2022/04/16 01:42:32;;;;;;;5.53;3.35;;;8.00;92.40;;;;;;5040192;28;20089;-79
2022/04/16 01:45:01;;;;;;;3.30;2.92;;;8.00;92.40;;;;;;5036563;28;20056;-79
2022/04/16 01:47:28;;;;;;;4.18;3.22;;;7.90;92.60;;;;;;5038202;28;20026;-77
2022/04/16 01:49:55;;;;;;;3.00;2.70;;;7.90;92.70;;;;;;5036321;28;20460;-78
2022/04/16 01:52:24;;;;;;;3.13;2.78;;;7.90;92.70;;;;;;5038932;28;20457;-78
2022/04/16 01:54:50;;;;;;;3.30;2.60;;;7.90;92.70;;;;;;5036547;28;20432;-78
2022/04/16 01:57:20;;;;;;;3.60;2.83;;;7.90;92.70;;;;;;5037953;28;20025;-79
2022/04/16 01:59:47;;;;;;;3.63;3.10;;;7.80;92.80;;;;;;5051142;28;20048;-79
2022/04/16 02:02:13;;;;;;;4.00;3.10;;;7.80;92.90;;;;;;5052969;28;20029;-78
2022/04/16 02:04:39;;;;;;;2.85;2.65;;;7.80;93.00;;;;;;5039418;28;20033;-78
2022/04/16 02:07:05;;;;;;;2.63;2.42;;;7.80;93.10;;;;;;5056962;28;20362;-78
2022/04/16 02:09:31;;;;;;;4.07;3.20;;;7.70;93.20;;;;;;5055685;28;20100;-79
2022/04/16 02:11:57;;;;;;;3.22;2.78;;;7.70;93.30;;;;;;5071087;28;20048;-78
2022/04/16 02:14:23;;;;;;;4.25;3.15;;;7.70;93.50;;;;;;5055863;28;20039;-77
2022/04/16 02:16:49;;;;;;;4.07;3.20;;;7.70;93.60;;;;;;5056108;28;20032;-78
2022/04/16 02:19:15;;;;;;;3.47;3.13;;;7.70;93.50;;;;;;5055804;28;20082;-78
2022/04/16 02:21:44;;;;;;;3.92;3.53;;;7.70;93.60;;;;;;5056678;28;20270;-80
2022/04/16 02:24:13;;;;;;;3.95;2.97;;;7.70;93.70;;;;;;5074682;28;20029;-78
2022/04/16 02:26:42;;;;;;;5.88;3.13;;;7.70;93.90;;;;;;5059420;28;20027;-78
2022/04/16 02:29:08;;;;;;;4.10;3.63;;;7.70;93.80;;;;;;5050735;28;20149;-78
2022/04/16 02:31:36;;;;;;;3.42;2.90;;;7.60;94.00;;;;;;5049334;28;20017;-78
2022/04/16 02:34:02;;;;;;;3.67;3.00;;;7.60;94.10;;;;;;5040362;28;20021;-78
2022/04/16 02:36:28;;;;;;;3.60;2.92;;;7.50;94.30;;;;;;5059034;28;20104;-78
2022/04/16 02:38:54;;;;;;;4.55;3.42;;;7.50;94.40;;;;;;5056473;28;20056;-78
2022/04/16 02:41:23;;;;;;;4.05;3.60;;;7.50;94.40;;;;;;5056750;28;20036;-78
2022/04/16 02:43:49;;;;;;;4.93;4.10;;;7.50;94.60;;;;;;5056077;28;20036;-79
2022/04/16 02:49:00;;;;;;;6.20;4.38;;;7.30;94.90;;;;;;5056924;28;20032;-79
2022/04/16 02:51:26;;;;;;;7.05;4.20;;;7.30;95.30;;;;;;5056070;28;20087;-78
2022/04/16 02:53:52;;;;;;;5.20;4.43;;;7.20;95.40;;;;;;5055773;28;20018;-78
2022/04/16 02:56:17;;;;;;;6.13;4.28;;;7.20;95.60;;;;;;5055464;28;20067;-78
2022/04/16 02:58:44;;;;;;;5.22;4.38;;;7.20;95.80;;;;;;5048456;28;20032;-78
2022/04/16 03:01:10;;;;;;;6.35;4.38;;;7.10;96.00;;;;;;5047395;28;20025;-78
2022/04/16 03:03:35;;;;;;;4.15;3.70;;;7.10;96.20;;;;;;5054436;28;20017;-78
2022/04/16 03:06:01;;;;;;;6.90;4.55;;;7.10;96.40;;;;;;5070789;28;20032;-78
2022/04/16 03:08:27;;;;;;;5.53;4.53;;;7.00;96.60;;;;;;5054314;28;20025;-77
2022/04/16 03:10:54;;;;;;;6.93;5.10;;;7.00;96.80;;;;;;5055138;28;20029;-78
2022/04/16 03:13:20;;;;;;;6.03;4.63;;;7.00;97.00;;;;;;5055319;28;20435;-78
2022/04/16 03:18:30;;;;;;;7.38;4.93;;;6.90;97.30;;;;;;5054560;28;20102;-79
2022/04/16 03:20:58;;;;;;;6.32;4.97;;;6.90;97.60;;;;;;5055446;28;20105;-79
2022/04/16 03:23:25;;;;;;;7.95;5.18;;;6.80;97.80;;;;;;5054774;28;20021;-78
2022/04/16 03:25:53;;;;;;;7.05;4.97;;;6.80;97.90;;;;;;5054427;28;20538;-77
2022/04/16 03:28:19;;;;;;;6.32;4.82;;;6.80;98.10;;;;;;5054104;28;20053;-78
2022/04/16 03:30:46;;;;;;;6.20;4.95;;;6.80;98.50;;;;;;5050383;28;20047;-78
2022/04/16 03:33:12;;;;;;;9.10;6.25;;;6.80;98.40;;;;;;5034476;28;20462;-78
2022/04/16 03:35:38;;;;;;;7.75;5.60;;;6.80;98.50;;;;;;5035338;28;20643;-78
2022/04/16 03:38:05;;;;;;;7.18;5.55;;;6.70;98.60;;;;;;5034781;28;20029;-78
2022/04/16 03:40:31;;;;;;;8.45;6.10;;;6.70;98.80;;;;;;5034953;28;20017;-79
2022/04/16 03:42:58;;;;;;;9.30;6.20;;;6.70;98.90;;;;;;5016654;28;20025;-77
2022/04/16 03:45:32;;;;;;;9.80;6.32;;;6.70;99.00;;;;;;5034863;28;20021;-78
2022/04/16 03:47:59;;;;;;;7.78;5.57;;;6.70;99.20;;;;;;5033943;28;20075;-78
2022/04/16 03:50:27;;;;;;;8.20;5.78;;;6.60;99.30;;;;;;5033899;28;20009;-78
2022/04/16 03:52:56;;;;;;;8.82;5.70;;;6.60;99.40;;;;;;5034723;28;20477;-78
2022/04/16 04:00:58;;;;;;;8.52;6.15;;;6.50;99.90;;;;;;5048860;28;20036;-78
2022/04/16 04:03:24;;;;;;;8.32;6.00;;;6.50;99.90;;;;;;5054085;28;20029;-78
2022/04/16 04:05:53;;;;;;;8.20;5.85;;;6.50;99.90;;;;;;5054125;28;20025;-78
2022/04/16 04:08:20;;;;;;;7.00;5.40;;;6.50;99.90;;;;;;5053917;28;20017;-77
2022/04/16 04:10:46;;;;;;;10.60;6.78;;;6.50;99.90;;;;;;5054574;28;20021;-78
2022/04/16 04:13:16;;;;;;;8.90;6.18;;;6.50;99.90;;;;;;5053477;28;20025;-78
2022/04/16 04:15:42;;;;;;;10.23;7.53;;;6.60;99.90;;;;;;5054036;28;20025;-78
2022/04/16 04:18:07;;;;;;;9.57;6.95;;;6.60;99.90;;;;;;5055029;28;20032;-79
2022/04/16 04:20:36;;;;;;;7.28;5.47;;;6.60;99.90;;;;;;5069627;28;20021;-79
2022/04/16 04:23:03;;;;;;;8.93;6.50;;;6.70;99.90;;;;;;5054441;28;20029;-78
2022/04/16 04:25:29;;;;;;;7.85;5.70;;;6.70;99.90;;;;;;5053707;28;20446;-78
2022/04/16 04:27:55;;;;;;;8.82;6.57;;;6.60;99.90;;;;;;5053435;28;20087;-78
2022/04/16 04:30:21;;;;;;;7.88;6.00;;;6.60;99.90;;;;;;5053138;28;20021;-78
2022/04/16 04:32:47;;;;;;;7.18;5.95;;;6.60;99.90;;;;;;5038786;28;20057;-77
2022/04/16 04:35:13;;;;;;;8.82;5.55;;;6.50;99.90;;;;;;5036518;28;20037;-78
2022/04/16 04:37:38;;;;;;;6.65;5.15;;;6.50;99.90;;;;;;5035965;28;20068;-78
2022/04/16 04:40:05;;;;;;;8.52;6.30;;;6.50;99.90;;;;;;5034223;28;20060;-78
2022/04/16 04:42:33;;;;;;;7.78;6.00;;;6.50;99.90;;;;;;5017101;28;20028;-78
2022/04/16 04:45:05;;;;;;;9.57;6.43;;;6.50;99.90;;;;;;5035546;28;20026;-79
2022/04/16 04:47:31;;;;;;;8.65;6.32;;;6.50;99.90;;;;;;5035589;28;20029;-78
2022/04/16 04:49:57;;;;;;;7.50;6.13;;;6.50;99.90;;;;;;5035343;28;20550;-78
2022/04/16 04:52:29;;;;;;;8.73;5.78;;;6.50;99.90;;;;;;5034772;28;20087;-78
2022/04/16 04:54:58;;;;;;;7.88;5.25;;;6.50;99.90;;;;;;5034968;28;20529;-77
2022/04/16 04:57:24;;;;;;;7.28;5.97;;;6.60;99.90;;;;;;5016575;28;20033;-78
2022/04/16 04:59:50;;;;;;;8.95;5.95;;;6.60;99.90;;;;;;5052806;28;20040;-79
2022/04/16 05:02:16;;;;;;;7.78;5.40;;;6.70;99.90;;;;;;5039971;28;20215;-79
2022/04/16 05:04:42;;;;;;;7.55;5.97;;;6.80;99.90;;;;;;5037130;28;20033;-79
2022/04/16 05:07:09;;;;;;;8.18;6.15;;;6.90;99.90;;;;;;5053389;28;20029;-79
2022/04/16 05:09:36;;;;;;;8.00;5.55;;;6.90;99.90;;;;;;5036852;28;20020;-79
2022/04/16 05:12:01;;;;;;;8.18;5.53;;;7.00;99.90;;;;;;5038223;28;20326;-78
2022/04/16 05:14:27;;;;;;;8.20;5.40;;;7.10;99.90;;;;;;5037826;28;20032;-79
2022/04/16 05:16:53;;;;;;;7.20;5.40;;;7.10;99.90;;;;;;5037546;28;20029;-79
2022/04/16 05:19:19;;;;;;;9.45;5.57;;;7.20;99.90;;;;;;5037324;28;20370;-78
2022/04/16 05:21:44;;;;;;;9.43;5.95;;;7.30;99.90;;;;;;5037321;28;20076;-79
2022/04/16 05:24:11;;;;;;;7.32;4.75;;;7.30;99.70;;;;;;5050539;22;20159;-79
2022/04/16 05:26:38;;;;;;;7.18;5.00;;;7.40;99.40;;;;;;5099861;28;20422;-79
2022/04/16 05:29:04;;;;;;;8.20;5.45;;;7.50;99.30;;;;;;5081890;28;20025;-82
2022/04/16 05:31:30;;;;;;;6.40;5.30;;;7.50;98.70;;;;;;5092841;28;20051;-81
2022/04/16 05:36:42;;;;;;;5.10;4.10;;;7.60;98.60;;;;;;5100761;28;20092;-79
2022/04/16 05:39:08;;;;;;;7.95;5.53;;;7.60;98.40;;;;;;5098793;28;20024;-79
2022/04/16 05:41:34;;;;;;;7.68;5.32;;;7.70;98.10;;;;;;5101283;28;20073;-80
2022/04/16 05:44:00;;;;;;;8.45;5.13;;;7.70;97.90;;;;;;5101131;28;20065;-80
2022/04/16 05:46:26;;;;;;;5.65;4.40;;;7.70;97.70;;;;;;5100264;28;20032;-79
2022/04/16 05:48:52;;;;;;;10.70;5.65;;;7.80;98.00;;;;;;5107194;28;20027;-79
2022/04/16 05:51:19;;;;;;;5.78;5.03;;;7.80;97.70;;;;;;5105131;28;20081;-79
2022/04/16 05:53:46;;;;;;;4.70;4.05;;;7.90;97.60;;;;;;5102064;28;20408;-79
2022/04/16 05:56:12;;;;;;;6.65;4.70;;;8.00;97.70;;;;;;5100854;28;20074;-79
2022/04/16 05:58:38;;;;;;;5.80;4.20;;;8.10;97.40;;;;;;5089629;28;20161;-79
2022/04/16 06:01:03;;;;;;;5.05;4.15;;;8.30;97.10;;;;;;5089204;28;20058;-79
2022/04/16 06:03:30;;;;;;;6.30;4.85;;;8.40;96.80;;;;;;5098859;28;20089;-79
2022/04/16 06:05:58;;;;;;;6.05;4.88;;;8.50;96.20;;;;;;5102211;28;20035;-79
2022/04/16 06:08:24;;;;;;;7.47;5.25;;;8.60;95.60;;;;;;5098687;28;20035;-80
2022/04/16 06:10:49;;;;;;;6.25;5.10;;;8.70;95.10;;;;;;5099198;28;20348;-79
2022/04/16 06:13:15;;;;;;;5.13;4.03;;;8.80;95.20;;;;;;5099532;28;20081;-80
2022/04/16 06:15:42;;;;;;;6.60;4.45;;;8.90;95.30;;;;;;5099431;28;20032;-80
2022/04/16 06:18:08;;;;;;;6.65;4.80;;;9.00;94.70;;;;;;5098737;28;20065;-79
2022/04/16 06:20:35;;;;;;;6.45;4.95;;;9.10;94.60;;;;;;5099837;28;20028;-79
2022/04/16 06:23:01;;;;;;;5.00;4.50;;;9.20;94.40;;;;;;5098880;28;20121;-79
2022/04/16 06:25:27;;;;;;;6.35;4.75;;;9.20;94.10;;;;;;5099576;28;20103;-80
2022/04/16 06:27:54;;;;;;;6.47;4.78;;;9.30;93.50;;;;;;5095198;28;20024;-80
2022/04/16 06:30:20;;;;;;;5.43;4.40;;;9.50;93.60;;;;;;5086555;28;20020;-80
2022/04/16 06:32:46;;;;;;;4.78;4.15;;;9.70;93.40;;;;;;5098364;28;20027;-80
2022/04/16 06:35:12;;;;;;;7.03;5.03;;;10.00;92.50;;;;;;5099348;28;20024;-80
2022/04/16 06:37:39;;;;;;;4.45;3.53;;;10.10;91.70;;;;;;5097407;28;20039;-80
2022/04/16 06:40:06;;;;;;;5.50;4.57;;;10.00;92.00;;;;;;5100049;28;20024;-80
2022/04/16 06:42:32;;;;;;;5.75;5.05;;;10.00;91.60;;;;;;5102940;28;20028;-79
2022/04/16 06:44:58;;;;;;;7.07;5.20;;;10.00;91.40;;;;;;5099247;28;20031;-79
2022/04/16 06:47:24;;;;;;;5.40;4.40;;;9.90;91.40;;;;;;5101094;28;20384;-80
2022/04/16 06:49:50;;;;;;;6.85;4.20;;;9.90;91.80;;;;;;5109243;28;20026;-79
2022/04/16 06:52:19;;;;;;;6.50;4.70;;;10.00;91.60;;;;;;5112664;28;20028;-79
2022/04/16 06:54:47;;;;;;;6.10;4.25;;;9.90;91.70;;;;;;5105596;28;20031;-81
2022/04/16 06:57:14;;;;;;;6.65;4.88;;;9.90;91.80;;;;;;5099846;28;20024;-80
2022/04/16 06:59:40;;;;;;;5.65;4.25;;;9.90;91.10;;;;;;5090970;28;20039;-80
2022/04/16 07:02:07;;;;;;;5.05;4.47;;;9.80;91.50;;;;;;5095207;28;20053;-80
2022/04/16 07:04:33;;;;;;;5.32;4.55;;;9.80;91.60;;;;;;5099689;28;20666;-81
2022/04/16 07:07:00;;;;;;;7.45;4.57;;;9.70;91.50;;;;;;5098175;28;20028;-81
2022/04/16 07:09:26;;;;;;;6.13;4.95;;;9.60;91.80;;;;;;5100649;28;20032;-80
2022/04/16 07:11:52;;;;;;;6.28;5.07;;;9.40;92.50;;;;;;5099723;28;20054;-80
2022/04/16 07:14:17;;;;;;;5.45;4.35;;;9.40;92.80;;;;;;5098519;28;20460;-79
2022/04/16 07:16:43;;;;;;;6.63;4.80;;;9.30;92.60;;;;;;5098250;28;20032;-81
2022/04/16 07:19:09;;;;;;;5.60;4.90;;;9.30;93.00;;;;;;5102082;28;20039;-81
2022/04/16 07:21:35;;;;;;;8.60;5.18;;;9.20;92.70;;;;;;5099445;28;20020;-80
2022/04/16 07:24:01;;;;;;;6.63;5.15;;;9.20;92.90;;;;;;5097301;28;20020;-80
2022/04/16 07:26:27;;;;;;;5.57;4.97;;;9.10;93.00;;;;;;5100549;28;20046;-80
2022/04/16 07:28:52;;;;;;;6.05;5.15;;;9.00;93.00;;;;;;5092438;28;20024;-80
2022/04/16 07:31:18;;;;;;;6.40;4.97;;;9.00;93.70;;;;;;5089152;28;20100;-81
2022/04/16 07:33:45;;;;;;;5.25;4.68;;;8.90;94.00;;;;;;5078297;28;20081;-80
2022/04/16 07:36:11;;;;;;;6.35;5.25;;;9.00;94.00;;;;;;5078389;28;20027;-80
2022/04/16 07:38:36;;;;;;;7.82;4.78;;;8.90;93.90;;;;;;5078058;28;20385;-80
2022/04/16 07:41:02;;;;;;;6.55;5.13;;;8.90;93.90;;;;;;5079561;28;20028;-80
2022/04/16 07:43:29;;;;;;;6.10;5.03;;;8.90;94.00;;;;;;5078506;28;20028;-80
2022/04/16 07:45:55;;;;;;;9.68;6.25;;;9.00;94.40;;;;;;5076848;28;20052;-81
2022/04/16 07:48:21;;;;;;;6.82;4.82;;;9.10;94.30;;;;;;5080013;28;20024;-80
2022/04/16 07:50:47;;;;;;;6.53;5.00;;;9.20;93.70;;;;;;5081099;28;20021;-80
2022/04/16 07:53:12;;;;;;;5.80;4.72;;;9.20;94.10;;;;;;5077786;28;20031;-80
2022/04/16 07:55:38;;;;;;;5.57;4.90;;;9.30;93.90;;;;;;5076167;28;20505;-81
2022/04/16 07:58:04;;;;;;;6.40;4.72;;;9.30;93.80;;;;;;5077419;28;20028;-80
2022/04/16 08:00:30;;;;;;;6.97;4.43;;;9.30;93.60;;;;;;5086429;28;20035;-80
2022/04/16 08:02:56;;;;;;;6.18;4.97;;;9.30;93.50;;;;;;5078406;28;20024;-80
2022/04/16 08:05:21;;;;;;;5.22;4.63;;;9.30;93.60;;;;;;5084342;28;20051;-79
2022/04/16 08:07:47;;;;;;;4.97;4.47;;;9.30;93.90;;;;;;5092628;28;20083;-78
2022/04/16 08:10:13;;;;;;;4.63;4.10;;;9.50;93.20;;;;;;5082675;28;20048;-80
2022/04/16 08:12:39;;;;;;;6.28;4.85;;;9.50;93.20;;;;;;5076828;28;20167;-80
2022/04/16 08:15:06;;;;;;;6.07;4.05;;;9.60;93.20;;;;;;5076801;28;20028;-80
2022/04/16 08:17:32;;;;;;;5.93;4.53;;;9.60;92.80;;;;;;5077107;28;20025;-80
2022/04/16 08:19:58;;;;;;;5.28;4.40;;;9.60;92.90;;;;;;5077641;28;20457;-79
2022/04/16 08:22:23;;;;;;;7.75;4.55;;;9.60;92.90;;;;;;5077384;28;20072;-80
2022/04/16 08:25:43;;;;;;;5.63;4.35;;;9.60;92.80;;;;;;5077639;28;20051;-80
2022/04/16 08:27:39;;;;;;;5.22;4.63;;;9.70;93.00;;;;;;5076385;28;20393;-77
2022/04/16 08:30:07;;;;;;;5.38;3.80;;;9.70;92.90;;;;;;5089576;28;20020;-79
2022/04/16 08:32:43;;;;;;;4.72;4.15;;;9.90;92.80;;;;;;5104787;28;20016;-79
2022/04/16 08:35:15;;;;;;;7.35;5.30;;;10.00;91.00;;;;;;5099263;28;20028;-79
2022/04/16 08:37:41;;;;;;;6.07;4.40;;;10.00;91.10;;;;;;5099928;28;20020;-78
2022/04/16 08:40:09;;;;;;;5.85;4.57;;;9.80;91.40;;;;;;5100048;28;20028;-80
2022/04/16 08:42:35;;;;;;;5.53;4.60;;;9.80;91.50;;;;;;5097881;28;20337;-79
2022/04/16 08:45:07;;;;;;;6.57;4.88;;;9.70;91.70;;;;;;5100022;28;20131;-80
2022/04/16 08:47:33;;;;;;;6.68;5.40;;;9.60;91.90;;;;;;5096961;28;20020;-81
2022/04/16 08:50:00;;;;;;;5.28;4.78;;;9.60;92.40;;;;;;5096981;28;20020;-79
2022/04/16 08:52:30;;;;;;;5.47;4.72;;;9.50;92.40;;;;;;5098166;28;20024;-79
2022/04/16 08:54:57;;;;;;;6.35;4.80;;;9.50;93.10;;;;;;5097006;28;20034;-81
2022/04/16 08:57:23;;;;;;;5.18;4.68;;;9.50;92.40;;;;;;5096955;28;20074;-79
2022/04/16 08:59:53;;;;;;;6.40;4.88;;;9.60;92.60;;;;;;5085748;28;20024;-79
2022/04/16 09:02:27;;;;;;;5.13;4.63;;;9.60;92.70;;;;;;5095617;28;20077;-80
2022/04/16 09:05:10;;;;;;;6.15;4.78;;;9.70;92.30;;;;;;5105107;28;20076;-79
2022/04/16 09:07:55;;;;;;;5.80;5.22;;;9.70;92.60;;;;;;5094105;28;20472;-79
2022/04/16 09:10:24;;;;;;;5.53;5.00;;;9.60;92.40;;;;;;5096930;28;20021;-80
2022/04/16 09:12:52;;;;;;;5.95;4.80;;;9.50;93.00;;;;;;5096031;28;20166;-81
2022/04/16 09:15:18;;;;;;;6.63;4.80;;;9.60;92.80;;;;;;5096653;28;20020;-79
2022/04/16 09:17:56;;;;;;;5.57;4.50;;;9.70;92.60;;;;;;5096292;28;20039;-80
2022/04/16 09:20:22;;;;;;;6.65;4.32;;;9.80;93.00;;;;;;5097389;28;20030;-80
2022/04/16 09:22:49;;;;;;;5.00;4.38;;;10.00;92.00;;;;;;5096712;28;20029;-80
2022/04/16 09:25:19;;;;;;;5.60;4.55;;;10.00;91.50;;;;;;5096414;28;20077;-79
2022/04/16 09:27:49;;;;;;;4.95;4.28;;;9.90;91.70;;;;;;5094209;28;20054;-80
2022/04/16 09:30:30;;;;;;;5.40;4.90;;;9.90;92.40;;;;;;5086555;28;20020;-80
2022/04/16 09:32:57;;;;;;;5.35;4.85;;;10.00;91.80;;;;;;5097299;28;20112;-80
2022/04/16 09:35:34;;;;;;;5.40;4.90;;;10.10;92.50;;;;;;5096770;28;20020;-80
2022/04/16 09:38:01;;;;;;;5.05;4.60;;;10.10;93.20;;;;;;5097155;28;20083;-80
2022/04/16 09:40:31;;;;;;;3.92;3.50;;;10.20;93.20;;;;;;5098279;28;20032;-81
2022/04/16 09:43:01;;;;;;;4.55;3.78;;;10.20;92.20;;;;;;5097637;28;20058;-80
2022/04/16 09:45:27;;;;;;;4.35;3.25;;;10.30;92.30;;;;;;5098564;28;20510;-81
2022/04/16 09:47:53;;;;;;;4.13;3.08;;;10.20;91.60;;;;;;5098215;28;20028;-80
2022/04/16 09:50:24;;;;;;;2.70;2.50;;;10.10;92.60;;;;;;5100440;28;20028;-81
2022/04/16 09:52:57;;;;;;;3.55;3.08;;;10.30;93.40;;;;;;5101389;28;20444;-80
2022/04/16 09:55:26;;;;;;;3.40;3.10;;;10.50;91.80;;;;;;5103910;28;20024;-81
2022/04/16 09:58:03;;;;;;;3.15;2.85;;;10.60;91.70;;;;;;5101262;28;20078;-81
2022/04/16 10:00:31;;;;;;;4.60;3.42;;;10.80;91.60;;;;;;5103047;28;20126;-81
2022/04/16 10:02:58;;;;;;;3.53;3.03;;;11.10;91.00;;;;;;5101146;28;20028;-81
2022/04/16 10:05:25;;;;;;;2.58;2.38;;;11.10;90.70;;;;;;5101039;28;20028;-81
2022/04/16 10:07:54;;;;;;;4.28;3.88;;;11.40;91.10;;;;;;5100249;28;20031;-79
2022/04/16 10:10:54;;;;;;;3.28;2.97;;;11.50;88.10;;;;;;5098608;28;20039;-80
2022/04/16 10:13:15;;;;;;;;;;;11.60;88.10;;;;;;5107830;28;20035;-80
2022/04/16 10:16:01;;;;;;;6.30;3.17;;;11.50;87.20;;;;;;5118184;28;20049;-79
2022/04/16 10:18:28;;;;;;;2.50;2.30;;;11.40;88.30;;;;;;5116928;28;20516;-80
2022/04/16 10:20:58;;;;;;;8.70;3.85;;;11.50;88.60;;;;;;5116049;28;20028;-80
2022/04/16 10:23:40;;;;;;;4.00;3.60;;;11.40;84.60;;;;;;5110134;28;20110;-79
2022/04/16 10:26:15;;;;;;;3.75;3.42;;;11.10;85.90;;;;;;5107288;28;20034;-82
2022/04/16 10:28:55;;;;;;;3.88;3.47;;;10.80;87.30;;;;;;5103209;28;20024;-79
2022/04/16 10:31:25;;;;;;;3.17;2.88;;;10.70;86.70;;;;;;5091433;28;20076;-80
2022/04/16 10:34:05;;;;;;;3.80;3.40;;;10.70;87.40;;;;;;5082666;28;20021;-81
2022/04/16 10:36:54;;;;;;;4.22;3.83;;;10.60;86.70;;;;;;5083245;28;20103;-81
2022/04/16 10:39:36;;;;;;;4.57;3.70;;;10.50;87.50;;;;;;5079452;28;20154;-80
2022/04/16 10:42:04;;;;;;;3.83;3.40;;;10.40;88.50;;;;;;5081566;28;20096;-81
2022/04/16 10:44:53;;;;;;;4.68;3.47;;;10.50;88.90;;;;;;5078360;28;20024;-81
2022/04/16 10:47:19;;;;;;;5.13;3.40;;;10.50;88.50;;;;;;5082556;28;20097;-80
2022/04/16 10:49:45;;;;;;;3.40;3.10;;;10.70;87.90;;;;;;5082762;28;20107;-81
2022/04/16 10:52:21;;;;;;;4.80;3.70;;;10.80;87.20;;;;;;5083472;28;20102;-80
2022/04/16 10:54:48;;;;;;;5.25;3.25;;;11.00;86.90;;;;;;5081578;28;20021;-80
2022/04/16 10:57:21;;;;;;;5.57;4.47;;;11.00;85.60;;;;;;5088373;28;20074;-79
2022/04/16 10:59:47;;;;;;;4.00;3.05;;;11.00;85.40;;;;;;5101608;28;20008;-79
2022/04/16 11:02:19;;;;;;;5.13;3.50;;;11.00;85.50;;;;;;5098825;28;20090;-81
2022/04/16 11:05:11;;;;;;;3.72;3.40;;;10.90;86.40;;;;;;5105105;28;20496;-80
2022/04/16 11:07:39;;;;;;;5.23;4.23;;;10.90;88.80;;;;;;5101719;28;20024;-81
2022/04/16 11:10:10;;;;;;;4.15;3.75;;;10.90;89.10;;;;;;5101326;28;20020;-80
2022/04/16 11:12:40;;;;;;;6.13;4.53;;;10.90;90.80;;;;;;5100464;28;20023;-80
2022/04/16 11:15:24;;;;;;;4.22;3.83;;;10.90;90.70;;;;;;5102925;28;20119;-81
2022/04/16 11:17:54;;;;;;;4.15;3.75;;;11.00;90.40;;;;;;5084654;28;20515;-80
2022/04/16 11:20:21;;;;;;;4.05;3.53;;;11.20;89.60;;;;;;5101123;28;20020;-80
2022/04/16 11:22:47;;;;;;;3.47;3.17;;;11.40;90.10;;;;;;5099335;28;20069;-81
2022/04/16 11:25:13;;;;;;;4.30;3.45;;;11.60;88.70;;;;;;5106061;28;20053;-81
2022/04/16 11:35:59;;;;;;;3.80;3.25;;;11.50;85.40;;;;;;5105726;28;20035;-81
2022/04/16 11:38:30;;;;;;;3.38;3.08;;;11.30;83.80;;;;;;5104036;28;20385;-81
2022/04/16 11:40:59;;;;;;;3.72;3.42;;;11.40;83.60;;;;;;5108337;28;20032;-81
2022/04/16 11:43:28;;;;;;;4.05;3.55;;;11.30;82.20;;;;;;5099481;28;20472;-80
2022/04/16 11:45:57;;;;;;;3.55;3.15;;;11.20;82.90;;;;;;5100672;28;20028;-82
2022/04/16 11:48:23;;;;;;;3.53;3.22;;;11.20;83.00;;;;;;5102922;28;20490;-81
2022/04/16 11:50:49;;;;;;;4.53;3.00;;;11.30;82.50;;;;;;5105931;28;20141;-82
2022/04/16 11:53:15;;;;;;;3.50;3.20;;;11.20;83.20;;;;;;5104892;28;20028;-82
2022/04/16 11:55:49;;;;;;;4.07;3.50;;;11.10;82.60;;;;;;5105283;28;20028;-82
2022/04/16 11:58:16;;;;;;;4.00;3.60;;;11.00;84.30;;;;;;5099013;28;20025;-81
2022/04/16 12:00:49;;;;;;;4.30;3.70;;;10.80;84.90;;;;;;5093876;28;20031;-84
2022/04/16 12:03:17;;;;;;;5.03;4.43;;;10.60;86.40;;;;;;5093750;28;20054;-81
2022/04/16 12:05:44;;;;;;;6.18;3.72;;;10.40;86.30;;;;;;5093708;28;20066;-82
2022/04/16 12:08:10;;;;;;;5.40;4.35;;;10.20;87.80;;;;;;5088392;28;20115;-82
2022/04/16 12:10:43;;;;;;;5.78;4.53;;;10.10;87.90;;;;;;5090167;28;20072;-80
2022/04/16 12:13:12;;;;;;;12.75;7.72;;;10.10;89.20;;;;;;5094705;28;20012;-80
2022/04/16 12:15:45;;;;;;;8.32;6.72;;;10.20;88.70;;;;;;5089757;28;20470;-81
2022/04/16 12:18:15;;;;;;;11.40;8.43;;;10.20;90.10;;;;;;5087436;28;20047;-81
2022/04/16 12:20:42;;;;;;;10.68;7.55;;;10.40;89.10;;;;;;5088343;28;20052;-82
2022/04/16 12:23:13;;;;;;;11.82;8.38;;;10.40;88.40;;;;;;5087503;28;20529;-82
2022/04/16 12:25:41;;;;;;;12.38;8.52;;;10.50;88.30;;;;;;5086983;28;20162;-82
2022/04/16 12:28:14;;;;;;;10.95;7.85;;;10.50;86.60;;;;;;5086228;28;20024;-82
2022/04/16 12:30:40;;;;;;;10.27;7.10;;;10.40;88.50;;;;;;5090925;28;20020;-81
2022/04/16 12:33:09;;;;;;;10.18;7.68;;;10.80;86.70;;;;;;5107028;28;20078;-81
2022/04/16 12:35:40;;;;;;;8.93;6.65;;;11.10;85.40;;;;;;5106738;28;20134;-82
2022/04/16 12:38:07;;;;;;;9.32;7.68;;;11.20;84.60;;;;;;5105943;28;20044;-82
2022/04/16 12:40:35;;;;;;;11.27;8.13;;;11.30;83.30;;;;;;5106514;28;20028;-82
2022/04/16 12:43:01;;;;;;;10.80;7.38;;;11.50;83.40;;;;;;5106610;28;20028;-81
2022/04/16 12:45:30;;;;;;;11.93;7.50;;;11.90;83.00;;;;;;5106168;28;20028;-82
2022/04/16 12:47:56;;;;;;;8.85;6.35;;;12.10;82.00;;;;;;5104972;28;20023;-82
2022/04/16 12:50:22;;;;;;;8.35;5.95;;;12.10;80.10;;;;;;5105641;28;20076;-81
2022/04/16 12:52:48;;;;;;;7.50;5.90;;;12.10;80.10;;;;;;5105922;28;20016;-81
2022/04/16 12:55:14;;;;;;;6.78;5.30;;;12.50;80.30;;;;;;5104789;28;20333;-81
2022/04/16 12:57:42;;;;;;;8.82;5.68;;;13.00;79.80;;;;;;5102835;28;20028;-82
2022/04/16 13:00:09;;;;;;;9.05;6.30;;;13.40;76.50;;;;;;5100656;28;20028;-82
2022/04/16 13:02:38;;;;;;;6.78;5.10;;;13.20;72.30;;;;;;5085013;28;20089;-83
2022/04/16 13:05:08;;;;;;;7.35;5.88;;;12.80;73.90;;;;;;5085491;28;20020;-82
2022/04/16 13:07:34;;;;;;;6.20;5.22;;;12.80;75.50;;;;;;5075663;28;20461;-82
2022/04/16 13:09:59;;;;;;;5.82;4.95;;;13.40;73.70;;;;;;5076822;28;20021;-82
2022/04/16 13:12:25;;;;;;;5.85;4.60;;;14.10;71.90;;;;;;5079127;28;20025;-84
2022/04/16 13:14:51;;;;;;;7.15;5.55;;;14.20;69.80;;;;;;5079426;28;20025;-82
2022/04/16 13:17:17;;;;;;;7.78;6.45;;;14.10;69.70;;;;;;5082295;28;20472;-83
2022/04/16 13:19:43;;;;;;;9.57;6.60;;;13.90;68.90;;;;;;5083062;28;20048;-82